Time;durP1;ratioP1;P1;durP2;ratioP2;P2;SDS_P1;SDS_P2;PMS_P1;PMS_P2;Temp;Humidity;BMP_temperature;BMP_pressure;BME280_temperature;BME280_humidity;BME280_pressure;Samples;Min_cycle;Max_cycle;Signal;HPM_P1;HPM_P2
2022/09/10 00:15:03;;;;;;;;;;;;;;;;;;;;;
2022/09/10 00:18:38;;;;;;;;;;;;;;;;;;;;;
2022/09/10 00:25:35;;;;;;;0.30;0.22;;;;;;;-145.06;100.00;60892.56;6004382;23;20083;-92
2022/09/10 00:29:19;;;;;;;0.50;0.35;;;;;;;-145.06;100.00;60892.56;5977258;23;20001;-93
2022/09/10 00:32:03;;;;;;;0.40;0.20;;;;;;;-145.06;100.00;60892.56;5998858;23;20004;-92
2022/09/10 00:34:47;;;;;;;0.55;0.10;;;;;;;-145.06;100.00;60892.56;5976353;23;20008;-91
2022/09/10 06:43:06;;;;;;;0.50;0.32;;;;;;;-145.06;100.00;60892.56;6000262;22;20027;-92
2022/09/10 06:46:15;;;;;;;0.65;0.40;;;;;;;-145.06;100.00;60892.56;5980107;23;20016;-92
2022/09/10 06:49:04;;;;;;;0.50;0.40;;;;;;;-145.06;100.00;60892.56;5975465;23;20083;-92
2022/09/10 06:52:29;;;;;;;0.77;0.22;;;;;;;-145.06;100.00;60892.56;5977093;23;20032;-93
2022/09/10 07:00:11;;;;;;;;;;;;;;;;;;;;;
2022/09/10 07:24:20;;;;;;;1.67;0.40;;;;;;;-145.06;100.00;60892.56;5993443;22;19947;-95
2022/09/10 07:31:23;;;;;;;0.40;0.40;;;;;;;-145.06;100.00;60892.56;5868750;23;20061;-93
2022/09/10 12:48:57;;;;;;;1.85;1.30;;;;;;;-145.06;100.00;60892.56;5990322;22;20478;-93
2022/09/10 12:51:48;;;;;;;3.15;1.70;;;;;;;-145.06;100.00;60892.56;5975312;23;20455;-94
2022/09/10 12:54:42;;;;;;;1.85;1.33;;;;;;;-145.06;100.00;60892.56;5975520;23;20083;-93
2022/09/10 12:57:43;;;;;;;2.47;1.33;;;;;;;-145.06;100.00;60892.56;5946789;23;20005;-94
2022/09/10 13:00:29;;;;;;;2.25;1.50;;;;;;;-145.06;100.00;60892.56;5947188;23;20005;-94
2022/09/10 13:03:15;;;;;;;1.20;1.10;;;;;;;-145.06;100.00;60892.56;5947485;23;20324;-93
2022/09/10 13:06:20;;;;;;;1.95;1.30;;;;;;;-145.06;100.00;60892.56;5947716;23;20084;-94
2022/09/10 13:09:24;;;;;;;1.60;1.20;;;;;;;-145.06;100.00;60892.56;5948298;23;20439;-94
2022/09/10 13:12:26;;;;;;;1.40;1.30;;;;;;;-145.06;100.00;60892.56;5948744;23;20267;-93
2022/09/10 13:15:06;;;;;;;1.77;1.20;;;;;;;-145.06;100.00;60892.56;5952173;23;20009;-93
2022/09/10 13:17:50;;;;;;;2.38;1.52;;;;;;;-145.06;100.00;60892.56;5947936;23;20005;-93
2022/09/10 13:20:39;;;;;;;1.63;1.25;;;;;;;-145.06;100.00;60892.56;5947151;23;20005;-95
2022/09/10 13:23:21;;;;;;;2.25;1.80;;;;;;;-145.06;100.00;60892.56;5947367;23;20427;-93
2022/09/10 13:26:48;;;;;;;;;;;;;;;;;;;;;
2022/09/10 13:29:38;;;;;;;1.20;0.93;;;;;;;-145.06;100.00;60892.56;5979189;23;20021;-94
2022/09/10 13:49:59;;;;;;;3.00;1.45;;;;;;;-145.06;100.00;60892.56;6008549;23;20005;-92
2022/09/10 13:52:44;;;;;;;2.65;1.48;;;;;;;-145.06;100.00;60892.56;5975281;23;20064;-92
2022/09/10 13:55:29;;;;;;;1.95;1.45;;;;;;;-145.06;100.00;60892.56;5968127;23;20012;-91
2022/09/10 14:08:49;;;;;;;1.85;1.10;;;;;;;-145.06;100.00;60892.56;5983036;22;20017;-93
2022/09/10 14:11:34;;;;;;;1.83;1.05;;;;;;;-145.06;100.00;60892.56;5972635;23;20043;-94
2022/09/10 14:14:35;;;;;;;2.10;1.38;;;;;;;-145.06;100.00;60892.56;5972616;23;20012;-93
2022/09/10 14:21:26;;;;;;;2.45;1.20;;;;;;;-145.06;100.00;60892.56;5981274;23;20013;-93
2022/09/10 14:45:57;;;;;;;0.80;0.80;;;;;;;-145.06;100.00;60892.56;5980278;22;20031;-90
2022/09/10 14:49:21;;;;;;;1.63;0.90;;;;;;;-145.06;100.00;60892.56;5944408;23;20028;-94
2022/09/10 14:52:05;;;;;;;1.05;0.77;;;;;;;-145.06;100.00;60892.56;5965682;23;20009;-95
2022/09/10 14:54:48;;;;;;;1.25;0.73;;;;;;;-145.06;100.00;60892.56;5944339;23;20211;-94
2022/09/10 14:57:27;;;;;;;1.35;0.63;;;;;;;-145.06;100.00;60892.56;5943130;23;20447;-95
2022/09/10 15:00:15;;;;;;;2.13;0.60;;;;;;;-145.06;100.00;60892.56;5946631;23;20005;-94
2022/09/10 15:19:25;;;;;;;1.15;0.70;;;;;;;-145.06;100.00;60892.56;6000747;22;20017;-91
